Terminal Aerodrome Forecast
Issued by NWS

Home | Current Version | Previous Version | Text Only | Print | Product List | Glossary On
Versions: 1 2 3 4 5 6 7 8 9 10 11 12 13 14 15 16 17 18 19 20 21 22 23 24 25 26 27 28 29 30 31 32 33 34 35 36 37 38 39 40 41 42 43
000
FTUS45 KBOU 220527
TAFAPA
TAF
KAPA 220527Z 2206/2306 18005KT P6SM FEW050 SCT200
     FM220800 23005KT P6SM FEW050 SCT080
     FM221000 21006KT P6SM SCT030 BKN050
     FM221200 34006KT P6SM VCFG BKN010 OVC030
     FM221600 VRB05KT P6SM VCSH OVC015
     FM221900 02005KT P6SM VCSH SCT015 OVC025
     FM230100 VRB04KT P6SM VCSH SCT020 OVC030=

USA.gov is the U.S. government's official web portal to all federal, state and local government web resources and services.